createdAt,value
2017-12-13T00:00:28.326Z,86.08
2017-12-13T00:02:56.049Z,86.14
2017-12-13T00:05:23.654Z,86.26
2017-12-13T00:07:51.301Z,86.35
2017-12-13T00:10:19.034Z,86.48
2017-12-13T00:12:46.723Z,86.29
2017-12-13T00:15:14.400Z,86.08
2017-12-13T00:17:42.195Z,86.24
2017-12-13T00:20:09.873Z,86.27
2017-12-13T00:22:37.570Z,86.51
2017-12-13T00:25:05.242Z,86.62
2017-12-13T00:27:32.886Z,86.59
2017-12-13T00:30:00.478Z,86.70
2017-12-13T00:32:28.169Z,86.88
2017-12-13T00:34:55.839Z,86.93
2017-12-13T00:37:23.534Z,87.39
2017-12-13T00:39:51.135Z,87.81
2017-12-13T00:42:18.826Z,88.42
2017-12-13T00:44:46.491Z,88.67
2017-12-13T00:47:14.174Z,88.56
2017-12-13T00:49:41.834Z,88.48
2017-12-13T00:52:09.566Z,88.63
2017-12-13T00:54:37.213Z,88.70
2017-12-13T00:57:04.874Z,88.79
2017-12-13T00:59:32.545Z,89.22
2017-12-13T01:02:00.262Z,89.41
2017-12-13T01:04:27.984Z,89.82
2017-12-13T01:06:55.689Z,90.31
2017-12-13T01:09:23.420Z,90.67
2017-12-13T01:11:51.100Z,90.95
2017-12-13T01:14:18.791Z,91.04
2017-12-13T01:16:46.462Z,91.22
2017-12-13T01:19:14.190Z,91.25
2017-12-13T01:21:41.848Z,90.79
2017-12-13T01:24:09.487Z,90.59
2017-12-13T01:26:37.092Z,90.50
2017-12-13T01:29:04.728Z,90.81
2017-12-13T01:31:32.443Z,91.09
2017-12-13T01:34:00.365Z,91.26
2017-12-13T01:36:28.136Z,91.33
2017-12-13T01:38:55.906Z,91.35
2017-12-13T01:41:23.562Z,91.67
2017-12-13T01:43:51.263Z,91.80
2017-12-13T01:46:18.927Z,91.70
2017-12-13T01:48:46.609Z,91.45
2017-12-13T01:51:14.271Z,91.14
2017-12-13T01:53:41.958Z,90.76
2017-12-13T01:56:09.731Z,90.49
2017-12-13T01:58:37.418Z,90.14
2017-12-13T02:01:05.124Z,90.19
2017-12-13T02:03:32.825Z,89.83
2017-12-13T02:06:00.478Z,89.53
2017-12-13T02:08:28.218Z,89.61
2017-12-13T02:10:55.891Z,89.38
2017-12-13T02:13:23.587Z,89.33
2017-12-13T02:15:51.250Z,89.20
2017-12-13T02:18:18.982Z,89.18
2017-12-13T02:20:46.642Z,89.46
2017-12-13T02:23:14.339Z,89.24
2017-12-13T02:25:42.010Z,89.35
2017-12-13T02:28:09.705Z,89.58
2017-12-13T02:30:37.371Z,90.01
2017-12-13T02:33:05.063Z,89.91
2017-12-13T02:35:32.740Z,90.17
2017-12-13T02:38:00.440Z,90.54
2017-12-13T02:40:39.755Z,90.82
2017-12-13T02:43:07.464Z,91.12
2017-12-13T02:45:35.137Z,91.21
2017-12-13T02:48:02.877Z,91.32
2017-12-13T02:50:30.490Z,91.03
2017-12-13T02:52:58.183Z,90.31
2017-12-13T02:55:25.840Z,89.35
2017-12-13T02:57:53.511Z,88.54
2017-12-13T03:00:21.254Z,88.22
2017-12-13T03:02:48.994Z,88.02
2017-12-13T03:05:16.649Z,88.01
2017-12-13T03:07:44.354Z,87.95
2017-12-13T03:10:12.031Z,87.86
2017-12-13T03:12:39.669Z,87.83
2017-12-13T03:15:07.366Z,88.24
2017-12-13T03:17:35.022Z,88.66
2017-12-13T03:20:02.795Z,88.73
2017-12-13T03:22:31.158Z,88.92
2017-12-13T03:24:58.854Z,88.78
2017-12-13T03:27:26.519Z,88.53
2017-12-13T03:29:54.326Z,88.70
2017-12-13T03:32:21.983Z,88.98
2017-12-13T03:34:49.841Z,89.13
2017-12-13T03:37:17.506Z,89.10
2017-12-13T03:39:45.183Z,88.91
2017-12-13T03:42:12.839Z,88.98
2017-12-13T03:44:40.538Z,88.96
2017-12-13T03:47:08.195Z,88.89
2017-12-13T03:49:35.873Z,88.59
2017-12-13T03:52:03.666Z,88.47
2017-12-13T03:54:31.414Z,88.52
2017-12-13T03:56:59.038Z,88.45
2017-12-13T03:59:26.710Z,88.43
2017-12-13T04:01:54.397Z,88.21
2017-12-13T04:04:22.086Z,88.23
2017-12-13T04:06:49.778Z,88.30
2017-12-13T04:09:17.435Z,88.30
2017-12-13T04:11:45.128Z,88.41
2017-12-13T04:14:12.795Z,88.66
2017-12-13T04:16:40.540Z,88.76
2017-12-13T04:19:08.203Z,88.87
2017-12-13T04:21:35.885Z,88.85
2017-12-13T04:24:03.562Z,88.89
2017-12-13T04:26:31.258Z,88.82
2017-12-13T04:28:58.917Z,88.90
2017-12-13T04:31:26.600Z,88.73
2017-12-13T04:33:54.270Z,88.82
2017-12-13T04:36:21.973Z,88.76
2017-12-13T04:38:49.633Z,88.69
2017-12-13T04:41:17.356Z,88.78
2017-12-13T04:43:45.023Z,88.54
2017-12-13T04:46:12.687Z,88.05
2017-12-13T04:48:40.410Z,88.20
2017-12-13T04:51:08.070Z,88.40
2017-12-13T04:53:35.759Z,88.71
2017-12-13T04:56:03.409Z,88.81
2017-12-13T04:58:31.178Z,88.70
2017-12-13T05:00:58.840Z,88.67
2017-12-13T05:03:26.530Z,88.53
2017-12-13T05:05:54.206Z,88.36
2017-12-13T05:08:21.898Z,88.39
2017-12-13T05:10:49.561Z,88.35
2017-12-13T05:13:17.261Z,88.35
2017-12-13T05:15:44.923Z,88.27
2017-12-13T05:18:12.617Z,88.20
2017-12-13T05:20:40.274Z,88.02
2017-12-13T05:23:07.951Z,88.01
2017-12-13T05:25:35.612Z,88.00
2017-12-13T05:28:03.323Z,88.29
2017-12-13T05:30:31.008Z,88.51
2017-12-13T05:32:58.693Z,88.51
2017-12-13T05:35:26.403Z,88.70
2017-12-13T05:37:54.086Z,88.80
2017-12-13T05:40:21.802Z,88.92
2017-12-13T05:42:49.449Z,89.06
2017-12-13T05:45:17.141Z,89.07
2017-12-13T05:47:44.818Z,89.17
2017-12-13T05:50:12.513Z,89.43
2017-12-13T05:52:40.171Z,89.66
2017-12-13T05:55:07.880Z,89.83
2017-12-13T05:57:35.551Z,89.86
2017-12-13T06:00:03.255Z,90.01
2017-12-13T06:02:30.922Z,90.10
2017-12-13T06:04:58.622Z,90.41
2017-12-13T06:07:26.290Z,90.67
2017-12-13T06:09:53.974Z,90.84
2017-12-13T06:12:21.637Z,91.01
2017-12-13T06:14:49.334Z,91.14
2017-12-13T06:17:16.999Z,91.33
2017-12-13T06:19:44.705Z,91.33
2017-12-13T06:22:12.379Z,91.33
2017-12-13T06:24:40.073Z,91.40
2017-12-13T06:27:07.742Z,91.46
2017-12-13T06:29:35.451Z,91.78
2017-12-13T06:32:03.122Z,91.79
2017-12-13T06:34:30.815Z,91.80
2017-12-13T06:36:58.562Z,91.82
2017-12-13T06:39:26.323Z,91.86
2017-12-13T06:41:53.982Z,92.04
2017-12-13T06:44:21.712Z,92.06
2017-12-13T06:46:49.374Z,91.93
2017-12-13T06:49:17.059Z,91.74
2017-12-13T06:51:44.721Z,91.73
2017-12-13T06:54:12.420Z,91.70
2017-12-13T06:56:40.275Z,91.81
2017-12-13T06:59:07.964Z,91.72
2017-12-13T07:01:35.631Z,91.28
2017-12-13T07:04:03.324Z,90.51
2017-12-13T07:06:30.906Z,89.58
2017-12-13T07:08:58.550Z,88.64
2017-12-13T07:11:26.187Z,88.05
2017-12-13T07:13:53.801Z,87.40
2017-12-13T07:16:21.454Z,87.13
2017-12-13T07:18:49.054Z,87.06
2017-12-13T07:21:16.656Z,86.92
2017-12-13T07:23:44.267Z,86.64
2017-12-13T07:26:11.878Z,86.40
2017-12-13T07:28:39.522Z,86.20
2017-12-13T07:31:07.189Z,86.14
2017-12-13T07:33:34.822Z,85.85
2017-12-13T07:36:02.404Z,85.83
2017-12-13T07:38:30.051Z,85.75
2017-12-13T07:40:57.638Z,86.02
2017-12-13T07:43:25.218Z,85.66
2017-12-13T07:45:52.853Z,85.78
2017-12-13T07:48:20.458Z,85.89
2017-12-13T07:50:48.072Z,85.59
2017-12-13T07:53:15.674Z,85.63
2017-12-13T07:55:43.283Z,85.09
2017-12-13T07:58:10.902Z,85.18
2017-12-13T08:00:38.515Z,84.88
2017-12-13T08:03:06.178Z,85.15
2017-12-13T08:05:33.785Z,85.23
2017-12-13T08:08:01.387Z,84.81
2017-12-13T08:10:29.019Z,85.11
2017-12-13T08:12:56.606Z,84.52
2017-12-13T08:15:24.223Z,84.65
2017-12-13T08:17:51.834Z,84.60
2017-12-13T08:20:19.482Z,84.20
2017-12-13T08:22:47.124Z,84.30
2017-12-13T08:25:14.797Z,84.47
2017-12-13T08:27:42.364Z,84.35
2017-12-13T08:30:09.966Z,84.12
2017-12-13T08:32:37.589Z,83.92
2017-12-13T08:40:52.394Z,84.20
2017-12-13T08:43:20.408Z,84.09
2017-12-13T08:51:16.662Z,84.89
2017-12-13T08:59:11.725Z,85.95
2017-12-13T09:04:18.448Z,86.32
2017-12-13T09:06:54.878Z,87.12
2017-12-13T09:09:52.601Z,87.35
2017-12-13T09:12:20.762Z,87.95
2017-12-13T09:14:52.474Z,88.69
2017-12-13T09:17:22.904Z,89.66
2017-12-13T09:19:51.260Z,89.96
2017-12-13T09:22:53.023Z,90.64
2017-12-13T09:25:20.904Z,90.33
2017-12-13T09:27:48.933Z,91.24
2017-12-13T09:30:16.737Z,91.05
2017-12-13T09:32:45.218Z,91.79
2017-12-13T09:35:13.242Z,92.53
2017-12-13T09:37:41.144Z,92.73
2017-12-13T09:40:09.505Z,93.12
2017-12-13T09:42:37.579Z,93.73
2017-12-13T09:45:05.498Z,94.08
2017-12-13T09:47:33.351Z,94.82
2017-12-13T09:50:01.303Z,94.98
2017-12-13T09:52:29.478Z,95.54
2017-12-13T09:54:57.281Z,96.24
2017-12-13T09:57:25.314Z,96.63
2017-12-13T09:59:53.186Z,97.02
2017-12-13T10:02:20.923Z,97.22
2017-12-13T10:04:48.535Z,97.52
2017-12-13T10:07:16.142Z,98.15
2017-12-13T10:09:43.930Z,98.58
2017-12-13T10:12:12.882Z,99.05
2017-12-13T10:14:40.888Z,99.89
2017-12-13T10:17:08.584Z,100.00
2017-12-13T10:19:36.276Z,100.00
2017-12-13T10:22:03.938Z,100.00
2017-12-13T10:24:31.595Z,100.00
2017-12-13T10:26:59.278Z,100.00
2017-12-13T10:29:26.894Z,100.00
2017-12-13T10:31:54.636Z,100.00
2017-12-13T10:34:22.788Z,100.00
2017-12-13T10:36:50.960Z,100.00
2017-12-13T10:39:19.090Z,100.00
2017-12-13T10:41:46.898Z,100.00
2017-12-13T10:44:14.486Z,100.00
2017-12-13T10:46:42.122Z,100.00
2017-12-13T10:49:09.721Z,100.00
2017-12-13T10:51:37.362Z,100.00
2017-12-13T10:54:04.902Z,100.00
2017-12-13T10:56:32.537Z,99.84
2017-12-13T10:59:00.149Z,99.26
2017-12-13T11:01:27.769Z,98.06
2017-12-13T11:03:55.355Z,97.18
2017-12-13T11:06:23.011Z,96.94
2017-12-13T11:08:50.608Z,95.80
2017-12-13T11:11:18.214Z,95.84
2017-12-13T11:13:45.815Z,94.98
2017-12-13T11:16:13.405Z,94.72
2017-12-13T11:18:41.027Z,94.61
2017-12-13T11:21:08.630Z,94.53
2017-12-13T11:23:36.252Z,94.07
2017-12-13T11:26:03.882Z,94.07
2017-12-13T11:28:31.566Z,94.00
2017-12-13T11:30:59.127Z,93.98
2017-12-13T11:33:26.759Z,93.92
2017-12-13T11:35:54.351Z,93.71
2017-12-13T11:38:21.962Z,93.50
2017-12-13T11:40:49.538Z,93.57
2017-12-13T11:43:17.135Z,93.56
2017-12-13T11:45:44.793Z,93.51
2017-12-13T11:48:12.352Z,92.75
2017-12-13T11:50:40.020Z,92.33
2017-12-13T11:53:07.602Z,92.34
2017-12-13T11:55:35.218Z,91.75
2017-12-13T11:58:02.812Z,91.51
2017-12-13T12:00:30.443Z,90.83
2017-12-13T12:02:58.039Z,90.51
2017-12-13T12:05:25.654Z,91.12
2017-12-13T12:07:53.265Z,91.23
2017-12-13T12:10:20.870Z,91.17
2017-12-13T12:12:48.435Z,89.84
2017-12-13T12:15:16.120Z,90.03
2017-12-13T12:17:43.728Z,90.27
2017-12-13T12:20:11.359Z,89.51
2017-12-13T12:22:38.987Z,88.76
2017-12-13T12:25:06.636Z,88.87
2017-12-13T12:27:34.267Z,89.30
2017-12-13T12:30:01.886Z,89.22
2017-12-13T12:32:29.515Z,88.77
2017-12-13T12:34:57.148Z,88.63
2017-12-13T12:37:24.770Z,88.13
2017-12-13T12:39:52.403Z,88.17
2017-12-13T12:42:20.033Z,87.66
2017-12-13T12:44:47.627Z,86.82
2017-12-13T12:47:15.263Z,86.84
2017-12-13T12:49:42.918Z,86.52
2017-12-13T12:52:10.530Z,86.58
2017-12-13T12:54:38.127Z,86.45
2017-12-13T12:57:05.816Z,86.42
2017-12-13T12:59:33.408Z,87.07
2017-12-13T13:02:00.989Z,86.13
2017-12-13T13:04:28.606Z,87.08
2017-12-13T13:06:56.228Z,87.37
2017-12-13T13:09:23.878Z,87.21
2017-12-13T13:11:51.501Z,87.71
2017-12-13T13:14:19.094Z,89.10
2017-12-13T13:16:46.727Z,89.54
2017-12-13T13:19:14.350Z,90.66
2017-12-13T13:21:41.942Z,90.87
2017-12-13T13:24:09.577Z,91.71
2017-12-13T13:26:37.155Z,92.62
2017-12-13T13:29:04.766Z,93.91
2017-12-13T13:31:32.363Z,93.78
2017-12-13T13:33:59.971Z,94.79
2017-12-13T13:36:27.541Z,94.28
2017-12-13T13:38:55.159Z,93.94
2017-12-13T13:41:22.770Z,93.75
2017-12-13T13:43:50.418Z,93.08
2017-12-13T13:46:18.010Z,93.86
2017-12-13T13:48:45.654Z,94.34
2017-12-13T13:51:13.254Z,93.78
2017-12-13T13:53:40.848Z,93.71
2017-12-13T13:56:08.470Z,94.00
2017-12-13T13:58:36.146Z,94.08
2017-12-13T14:01:03.751Z,94.31
2017-12-13T14:03:31.358Z,94.20
2017-12-13T14:05:58.968Z,94.90
2017-12-13T14:08:26.606Z,94.87
2017-12-13T14:10:54.199Z,94.39
2017-12-13T14:13:21.779Z,94.71
2017-12-13T14:15:49.406Z,94.36
2017-12-13T14:18:17.008Z,94.89
2017-12-13T14:20:44.628Z,94.90
2017-12-13T14:23:12.248Z,95.14
2017-12-13T14:25:39.962Z,95.46
2017-12-13T14:28:07.576Z,95.56
2017-12-13T14:30:35.178Z,95.36
2017-12-13T14:33:02.791Z,95.07
2017-12-13T14:35:30.406Z,95.19
2017-12-13T14:37:58.039Z,95.28
2017-12-13T14:40:25.619Z,94.77
2017-12-13T14:42:53.196Z,94.53
2017-12-13T14:45:20.806Z,94.47
2017-12-13T14:47:48.396Z,94.91
2017-12-13T14:50:16.106Z,94.93
2017-12-13T14:52:43.683Z,94.24
2017-12-13T14:55:11.298Z,94.53
2017-12-13T14:57:38.874Z,93.89
2017-12-13T15:00:06.551Z,93.40
2017-12-13T15:02:34.149Z,93.43
2017-12-13T15:05:01.831Z,92.84
2017-12-13T15:07:29.410Z,92.74
2017-12-13T15:09:57.035Z,93.05
2017-12-13T15:12:24.630Z,93.21
2017-12-13T15:14:52.294Z,93.03
2017-12-13T15:17:19.887Z,92.57
2017-12-13T15:19:47.520Z,93.01
2017-12-13T15:22:15.199Z,92.77
2017-12-13T15:24:42.815Z,92.05
2017-12-13T15:27:10.552Z,91.75
2017-12-13T15:29:38.180Z,92.08
2017-12-13T15:32:05.761Z,91.96
2017-12-13T15:34:33.455Z,92.16
2017-12-13T15:37:01.012Z,92.47
2017-12-13T15:39:28.625Z,91.90
2017-12-13T15:41:56.208Z,92.08
2017-12-13T15:44:23.840Z,92.04
2017-12-13T15:46:51.426Z,91.66
2017-12-13T15:49:19.074Z,91.52
2017-12-13T15:51:46.666Z,91.61
2017-12-13T15:54:14.446Z,91.56
2017-12-13T15:56:42.063Z,91.18
2017-12-13T15:59:09.690Z,91.19
2017-12-13T16:01:37.387Z,90.57
2017-12-13T16:04:05.011Z,90.54
2017-12-13T16:06:32.598Z,90.74
2017-12-13T16:09:00.210Z,90.88
2017-12-13T16:11:27.802Z,90.62
2017-12-13T16:13:55.428Z,89.98
2017-12-13T16:16:23.027Z,90.21
2017-12-13T16:18:50.675Z,90.40
2017-12-13T16:21:18.335Z,90.07
2017-12-13T16:23:45.996Z,90.02
2017-12-13T16:26:13.594Z,90.07
2017-12-13T16:28:41.239Z,90.18
2017-12-13T16:31:08.838Z,89.78
2017-12-13T16:33:36.474Z,89.28
2017-12-13T16:36:04.066Z,89.04
2017-12-13T16:38:31.773Z,89.40
2017-12-13T16:40:59.373Z,89.02
2017-12-13T16:43:27.062Z,89.08
2017-12-13T16:45:54.634Z,89.14
2017-12-13T16:48:22.253Z,88.88
2017-12-13T16:50:49.844Z,88.68
2017-12-13T16:53:17.466Z,88.57
2017-12-13T16:55:45.115Z,89.44
2017-12-13T16:58:12.759Z,89.22
2017-12-13T17:00:40.476Z,89.63
2017-12-13T17:03:08.102Z,89.65
2017-12-13T17:05:35.682Z,89.93
2017-12-13T17:08:03.287Z,90.24
2017-12-13T17:10:30.863Z,90.39
2017-12-13T17:12:58.568Z,90.80
2017-12-13T17:15:26.159Z,91.51
2017-12-13T17:17:53.743Z,92.24
2017-12-13T17:20:21.362Z,92.38
2017-12-13T17:22:48.998Z,92.74
2017-12-13T17:25:16.583Z,92.56
2017-12-13T17:27:44.294Z,92.79
2017-12-13T17:30:11.927Z,92.62
2017-12-13T17:32:39.513Z,93.16
2017-12-13T17:35:07.135Z,93.18
2017-12-13T17:37:34.741Z,93.58
2017-12-13T17:40:02.384Z,93.49
2017-12-13T17:42:30.008Z,93.55
2017-12-13T17:44:57.788Z,93.56
2017-12-13T17:47:25.421Z,93.95
2017-12-13T17:49:53.020Z,93.71
2017-12-13T17:52:20.606Z,94.24
2017-12-13T17:54:48.296Z,93.91
2017-12-13T17:57:15.895Z,93.75
2017-12-13T17:59:43.541Z,93.53
2017-12-13T18:02:11.126Z,93.48
2017-12-13T18:04:38.734Z,93.45
2017-12-13T18:07:06.369Z,93.11
2017-12-13T18:09:33.987Z,93.56
2017-12-13T18:12:01.614Z,92.85
2017-12-13T18:14:29.243Z,93.41
2017-12-13T18:16:56.853Z,92.98
2017-12-13T18:19:24.451Z,93.19
2017-12-13T18:21:52.101Z,93.45
2017-12-13T18:24:19.722Z,93.53
2017-12-13T18:26:47.323Z,93.11
2017-12-13T18:29:14.986Z,93.33
2017-12-13T18:31:42.716Z,92.70
2017-12-13T18:34:10.445Z,93.19
2017-12-13T18:36:38.067Z,93.02
2017-12-13T18:39:07.257Z,93.42
2017-12-13T18:41:34.940Z,93.89
2017-12-13T18:44:02.564Z,94.15
2017-12-13T18:46:30.145Z,94.55
2017-12-13T18:48:57.741Z,94.68
2017-12-13T18:51:25.375Z,94.93
2017-12-13T18:53:52.967Z,95.04
2017-12-13T18:56:20.577Z,94.87
2017-12-13T18:58:48.195Z,94.85
2017-12-13T19:01:15.826Z,94.60
2017-12-13T19:03:43.405Z,94.35
2017-12-13T19:06:11.018Z,94.46
2017-12-13T19:08:38.701Z,94.21
2017-12-13T19:11:06.326Z,94.16
2017-12-13T19:13:33.918Z,94.01
2017-12-13T19:16:01.555Z,94.22
2017-12-13T19:18:29.154Z,94.27
2017-12-13T19:20:56.775Z,94.62
2017-12-13T19:23:24.364Z,94.44
2017-12-13T19:25:52.013Z,94.22
2017-12-13T19:28:19.627Z,94.33
2017-12-13T19:30:47.277Z,94.27
2017-12-13T19:33:14.868Z,94.20
2017-12-13T19:35:42.483Z,94.49
2017-12-13T19:38:10.082Z,94.56
2017-12-13T19:40:37.722Z,94.94
2017-12-13T19:43:05.330Z,95.47
2017-12-13T19:45:32.983Z,96.31
2017-12-13T19:48:00.567Z,96.70
2017-12-13T19:50:28.172Z,96.94
2017-12-13T19:52:55.782Z,97.37
2017-12-13T19:55:23.413Z,97.96
2017-12-13T19:57:51.051Z,98.32
2017-12-13T20:00:18.699Z,98.64
2017-12-13T20:02:46.309Z,98.91
2017-12-13T20:05:13.986Z,99.50
2017-12-13T20:07:41.567Z,99.47
2017-12-13T20:10:09.189Z,99.57
2017-12-13T20:12:36.790Z,99.73
2017-12-13T20:15:19.945Z,99.68
2017-12-13T20:17:47.602Z,99.93
2017-12-13T20:20:15.264Z,99.86
2017-12-13T20:22:42.855Z,99.73
2017-12-13T20:25:10.492Z,99.80
2017-12-13T20:27:38.106Z,99.68
2017-12-13T20:30:05.779Z,99.84
2017-12-13T20:32:33.422Z,99.95
2017-12-13T20:35:01.056Z,100.00
2017-12-13T20:37:28.639Z,100.00
2017-12-13T20:39:56.372Z,100.00
2017-12-13T20:42:23.984Z,99.81
2017-12-13T20:44:51.623Z,99.66
2017-12-13T20:47:19.247Z,99.56
2017-12-13T20:49:46.882Z,99.82
2017-12-13T20:52:14.492Z,99.89
2017-12-13T20:54:42.089Z,99.69
2017-12-13T20:57:09.883Z,99.84
2017-12-13T20:59:38.574Z,99.63
2017-12-13T21:02:08.309Z,99.53
2017-12-13T21:04:35.910Z,99.48
2017-12-13T21:07:03.493Z,99.18
2017-12-13T21:09:31.135Z,98.48
2017-12-13T21:11:58.758Z,98.29
2017-12-13T21:14:26.419Z,98.48
2017-12-13T21:16:53.998Z,98.70
2017-12-13T21:19:21.611Z,99.16
2017-12-13T21:21:49.250Z,99.02
2017-12-13T21:24:16.855Z,99.19
2017-12-13T21:26:44.470Z,99.91
2017-12-13T21:29:12.068Z,100.00
2017-12-13T21:31:39.682Z,100.00
2017-12-13T21:34:07.285Z,100.00
2017-12-13T21:36:34.950Z,100.00
2017-12-13T21:39:02.653Z,100.00
2017-12-13T21:41:30.270Z,100.00
2017-12-13T21:43:57.884Z,100.00
2017-12-13T21:46:25.559Z,100.00
2017-12-13T21:48:53.136Z,100.00
2017-12-13T21:51:20.830Z,100.00
2017-12-13T21:53:48.446Z,100.00
2017-12-13T21:56:16.050Z,100.00
2017-12-13T21:58:43.642Z,100.00
2017-12-13T22:01:11.267Z,100.00
2017-12-13T22:03:38.847Z,100.00
2017-12-13T22:06:06.563Z,100.00
2017-12-13T22:08:34.142Z,100.00
2017-12-13T22:11:01.783Z,100.00
2017-12-13T22:13:29.370Z,99.07
2017-12-13T22:15:56.982Z,97.50
2017-12-13T22:18:24.734Z,95.55
2017-12-13T22:20:52.350Z,93.91
2017-12-13T22:23:19.963Z,93.72
2017-12-13T22:25:47.619Z,93.95
2017-12-13T22:28:15.194Z,94.14
2017-12-13T22:30:42.842Z,93.05
2017-12-13T22:33:10.470Z,92.41
2017-12-13T22:35:38.055Z,93.09
2017-12-13T22:38:05.671Z,92.92
2017-12-13T22:40:33.414Z,92.42
2017-12-13T22:43:01.069Z,92.23
2017-12-13T22:45:28.662Z,92.52
2017-12-13T22:47:56.268Z,92.28
2017-12-13T22:50:23.887Z,91.64
2017-12-13T22:52:51.530Z,91.74
2017-12-13T22:55:19.127Z,91.59
2017-12-13T22:57:46.742Z,91.51
2017-12-13T23:00:14.334Z,91.70
2017-12-13T23:02:42.046Z,91.75
2017-12-13T23:05:09.640Z,91.89
2017-12-13T23:07:37.251Z,91.84
2017-12-13T23:10:04.915Z,92.56
2017-12-13T23:12:32.579Z,92.28
2017-12-13T23:15:00.323Z,92.71
2017-12-13T23:17:28.127Z,93.05
2017-12-13T23:19:55.715Z,93.17
2017-12-13T23:22:23.329Z,93.34
2017-12-13T23:24:50.958Z,93.19
2017-12-13T23:27:18.545Z,93.23
2017-12-13T23:29:46.153Z,92.55
2017-12-13T23:32:13.759Z,92.30
2017-12-13T23:34:41.391Z,91.47
2017-12-13T23:37:08.968Z,91.11
2017-12-13T23:39:36.574Z,90.85
2017-12-13T23:42:04.143Z,90.06
2017-12-13T23:44:31.766Z,89.59
2017-12-13T23:46:59.351Z,89.58
2017-12-13T23:49:26.970Z,89.46
2017-12-13T23:51:54.666Z,89.35
2017-12-13T23:54:22.282Z,88.96
2017-12-13T23:56:49.860Z,88.93
2017-12-13T23:59:17.476Z,88.64
